• Join FlightAware (Why Join?)
  • Login
  • US Flag 
Rudolph Flight #1: Arrived! 
12:12AM EST


 

Airport Tracker/Info


-or-


 

Live Flight TrackerFlight Track Log ✈ N27XP ✈ 02-May-2014 ✈ KSOP - KCHS

Flight Track Log - Related Links

Times and Time Zones

All times are in EDT time to prevent confusion due to time zone crossing. See the N27XP flight status page for this flight to view local times or setup timezone preferences in your user account.

Time Position Orientation Groundspeed Altitude Reporting Facility
EDT Latitude Longitude Course Direction KTS MPH feet Rate Location/Type
04:45PM 35.0389 -79.4908 194° South 288 331 8,100  Level Washington Center
04:46PM 34.9672 -79.5128 194° South 294 338 9,900 1,680 Climbing Washington Center
04:47PM 34.8767 -79.5339 191° South 299 344 11,500 1,200 Climbing Washington Center
04:48PM 34.7967 -79.5553 192° South 322 371 12,400 900 Climbing Washington Center
04:50PM 34.6197 -79.6028 192° South 353 406 14,000 540 Climbing Jacksonville Center
04:51PM 34.5242 -79.6242 190° South 359 413 14,000  Level Jacksonville Center
04:52PM 34.4250 -79.6531 194° South 364 419 14,000  Level Jacksonville Center
04:53PM 34.3253 -79.6767 191° South 364 419 14,000  Level Jacksonville Center
04:54PM 34.2300 -79.7003 192° South 364 419 14,000  Level Jacksonville Center
04:55PM 34.1306 -79.7267 192° South 364 419 14,000  Level Jacksonville Center
04:56PM 34.0353 -79.7550 194° South 364 419 14,000 -360 Level Jacksonville Center
04:57PM 33.9378 -79.7786 194° South 364 419 13,300 -1,200 Descending Jacksonville Center
04:58PM 33.8383 -79.8022 191° South 364 419 11,700 -1,200 Descending Jacksonville Center
04:59PM 33.7450 -79.8256 192° South 358 412 11,000 -360 Descending Jacksonville Center
05:00PM 33.6475 -79.8514 192° South 352 405 11,000 -600 Level Jacksonville Center
05:01PM 33.5542 -79.8769 193° South 352 405 9,800 -1,620 Descending Jacksonville Center
05:02PM 33.4711 -79.8972 192° South 334 384 7,800 -1,920 Descending Jacksonville Center
05:03PM 33.3964 -79.9147 191° South 302 348 6,000 -900 Descending Jacksonville Center
05:04PM 33.3300 -79.9342 194° South 271 312 6,000  Level Jacksonville Center
05:05PM 33.2897 -79.9928 231° Southwest 237 273 6,000  Level Jacksonville Center
05:06PM 33.2619 -80.0583 243° Southwest 220 253 6,000 -180 Level Jacksonville Center
05:07PM 33.2531 -80.1306 262° West 220 253 5,700 -1,140 Descending Jacksonville Center
05:08PM 33.2464 -80.2053 264° West 226 260 3,800 -1,380 Descending Jacksonville Center
05:09PM 33.2186 -80.2681 242° Southwest 227 261 3,000 -420 Descending Jacksonville Center
05:10PM 33.1597 -80.2550 169° South 165 190 3,000  Level Jacksonville Center
05:12PM 33.0303 -80.1510 146° Southeast  Level FlightAware Approximate
05:19PM 32.8986 -80.0405 150° Southeast  Level Estimated
05:20PM 32.8986 -80.0405 North  Level Estimated
05:21PM 32.8986 -80.0405 150° Southeast  Level Estimated
05:22PM 32.8986 -80.0405 North  Level Estimated
05:23PM 32.8986 -80.0405 150° Southeast  Level Estimated
05:24PM 32.8986 -80.0405 North  Level Estimated